Time;durP1;ratioP1;P1;durP2;ratioP2;P2;SDS_P1;SDS_P2;PMS_P1;PMS_P2;Temp;Humidity;BMP_temperature;BMP_pressure;BME280_temperature;BME280_humidity;BME280_pressure;Samples;Min_cycle;Max_cycle;Signal;HPM_P1;HPM_P2
2022/03/29 00:01:29;;;;;;;39.00;20.30;;;;;;;13.02;36.71;98526.89;233227;1217;139912;-63
2022/03/29 00:06:32;;;;;;;38.90;20.70;;;;;;;13.01;36.83;98517.17;233467;1217;139241;-60
2022/03/29 00:11:35;;;;;;;39.90;19.40;;;;;;;12.98;36.81;98511.55;233235;1217;139313;-60
2022/03/29 00:16:39;;;;;;;36.50;20.10;;;;;;;12.96;36.88;98498.73;233478;1217;139546;-59
2022/03/29 00:21:42;;;;;;;34.30;19.10;;;;;;;12.95;36.82;98492.73;233212;1217;139661;-59
2022/03/29 00:26:46;;;;;;;34.10;18.80;;;;;;;12.96;36.94;98481.13;233237;1217;139236;-59
2022/03/29 00:31:49;;;;;;;38.10;19.60;;;;;;;12.92;36.93;98469.86;233220;1218;140130;-59
2022/03/29 00:36:52;;;;;;;35.60;18.80;;;;;;;12.89;37.08;98469.41;233319;1217;139537;-58
2022/03/29 00:42:03;;;;;;;35.40;18.20;;;;;;;12.85;37.02;98458.50;233205;1217;140194;-59
2022/03/29 00:47:06;;;;;;;28.80;16.80;;;;;;;12.84;36.95;98451.11;233212;1217;139385;-60
2022/03/29 00:52:10;;;;;;;32.40;17.20;;;;;;;12.84;36.94;98447.73;233227;1217;139966;-59
2022/03/29 00:57:13;;;;;;;28.60;16.50;;;;;;;12.83;37.33;98449.53;233227;1218;139461;-59
2022/03/29 01:02:16;;;;;;;28.70;16.70;;;;;;;12.82;37.12;98463.75;233183;1217;139496;-60
2022/03/29 01:07:19;;;;;;;29.40;15.90;;;;;;;12.81;37.32;98468.26;233252;1219;139782;-60
2022/03/29 01:12:24;;;;;;;29.90;17.30;;;;;;;12.77;37.66;98464.96;233290;1217;140057;-60
2022/03/29 01:17:40;;;;;;;27.10;15.60;;;;;;;12.70;38.34;98454.67;233252;1219;139991;-59
2022/03/29 01:22:46;;;;;;;29.30;16.00;;;;;;;12.57;38.68;98440.63;233278;1217;139628;-59
2022/03/29 01:27:50;;;;;;;;;;;;;;;12.44;39.77;98438.27;233171;1218;140499;-60
2022/03/29 01:32:53;;;;;;;24.40;15.10;;;;;;;12.35;40.96;98434.55;233273;1217;125846;-60
2022/03/29 01:37:56;;;;;;;26.30;15.20;;;;;;;12.33;41.76;98427.98;233250;1217;139548;-60
2022/03/29 01:43:01;;;;;;;24.20;14.90;;;;;;;12.36;42.58;98440.16;233332;1217;139740;-58
2022/03/29 01:48:04;;;;;;;28.30;17.40;;;;;;;12.32;42.67;98436.34;233271;1217;139983;-59
2022/03/29 01:53:07;;;;;;;28.10;17.10;;;;;;;12.27;43.14;98423.95;233236;1217;140073;-58
2022/03/29 01:58:10;;;;;;;28.90;17.40;;;;;;;12.16;43.14;98390.36;233209;1218;139820;-59
2022/03/29 02:03:13;;;;;;;26.70;16.60;;;;;;;12.00;43.37;98382.52;233336;1217;139371;-61
2022/03/29 02:08:16;;;;;;;28.20;17.70;;;;;;;11.89;43.93;98399.17;233292;1217;139812;-61
2022/03/29 02:13:21;;;;;;;27.60;16.20;;;;;;;11.86;44.13;98395.17;233338;1217;140654;-61
2022/03/29 02:18:24;;;;;;;29.10;18.40;;;;;;;11.85;44.86;98395.95;233284;1218;138667;-61
2022/03/29 02:23:27;;;;;;;33.80;18.70;;;;;;;11.88;44.99;98395.36;233265;1219;140173;-62
2022/03/29 02:28:29;;;;;;;37.00;21.40;;;;;;;11.86;44.78;98386.97;233127;1218;139367;-59
2022/03/29 02:33:32;;;;;;;36.80;20.40;;;;;;;11.85;44.64;98386.17;233274;1218;140173;-60
2022/03/29 02:38:35;;;;;;;37.40;20.30;;;;;;;11.78;45.07;98398.22;233162;1219;139710;-59
2022/03/29 02:43:41;;;;;;;34.40;21.10;;;;;;;11.74;45.18;98395.92;233105;1218;139151;-59
2022/03/29 02:48:44;;;;;;;40.80;21.90;;;;;;;11.69;45.20;98391.68;233461;1217;139998;-60
2022/03/29 02:53:47;;;;;;;41.10;21.70;;;;;;;11.65;45.50;98385.58;233269;1218;139397;-58
2022/03/29 02:58:50;;;;;;;43.00;22.20;;;;;;;11.61;45.59;98391.15;233245;1217;139955;-60
2022/03/29 03:03:53;;;;;;;40.70;23.60;;;;;;;11.59;45.39;98389.87;233266;1217;138881;-61
2022/03/29 03:08:56;;;;;;;43.60;23.40;;;;;;;11.64;45.84;98382.27;233235;1217;140001;-59
2022/03/29 03:13:59;;;;;;;46.20;24.80;;;;;;;11.64;45.85;98389.58;233264;1220;139568;-57
2022/03/29 03:19:02;;;;;;;39.70;23.20;;;;;;;11.59;46.19;98389.55;233380;1217;151864;-59
2022/03/29 03:24:06;;;;;;;36.40;22.60;;;;;;;11.53;46.17;98387.54;233282;1218;139772;-59
2022/03/29 03:29:09;;;;;;;37.40;22.20;;;;;;;11.49;46.44;98384.30;233213;1218;139164;-58
2022/03/29 03:34:12;;;;;;;37.00;22.20;;;;;;;11.44;46.70;98375.63;233301;1218;140584;-59
2022/03/29 03:39:15;;;;;;;41.90;21.60;;;;;;;11.42;46.92;98372.77;233214;1219;139847;-59
2022/03/29 03:44:18;;;;;;;34.00;20.00;;;;;;;11.43;47.45;98377.15;233260;1217;139345;-60
2022/03/29 03:49:21;;;;;;;34.40;20.30;;;;;;;11.44;47.60;98378.08;233444;1218;139919;-58
2022/03/29 03:54:24;;;;;;;33.10;19.20;;;;;;;11.48;47.67;98375.70;233243;1219;139362;-61
2022/03/29 03:59:27;;;;;;;30.30;18.60;;;;;;;11.50;47.93;98364.67;233163;1218;141075;-60
2022/03/29 04:04:30;;;;;;;31.90;19.60;;;;;;;11.51;47.84;98360.66;233222;1218;139435;-59
2022/03/29 04:09:35;;;;;;;31.60;19.40;;;;;;;11.52;48.62;98355.47;233094;1218;139496;-61
2022/03/29 04:14:38;;;;;;;33.40;19.80;;;;;;;11.51;48.57;98344.68;233217;1218;139756;-61
2022/03/29 04:19:41;;;;;;;35.40;19.70;;;;;;;11.49;48.54;98347.55;233292;1217;139451;-62
2022/03/29 04:24:45;;;;;;;34.70;19.70;;;;;;;11.47;48.70;98340.08;233381;1218;142244;-60
2022/03/29 04:29:48;;;;;;;30.50;18.80;;;;;;;11.40;48.84;98331.48;233181;1217;141106;-60
2022/03/29 04:34:51;;;;;;;34.20;20.20;;;;;;;11.40;48.75;98322.11;233246;1218;139654;-60
2022/03/29 04:39:53;;;;;;;31.30;19.20;;;;;;;11.43;49.06;98323.84;233221;1217;139658;-60
2022/03/29 04:44:56;;;;;;;37.00;20.10;;;;;;;11.38;49.06;98331.51;233236;1217;139700;-62
2022/03/29 04:49:59;;;;;;;33.30;20.00;;;;;;;11.24;49.50;98343.02;233202;1217;139277;-62
2022/03/29 04:55:03;;;;;;;34.20;19.80;;;;;;;11.25;49.41;98340.87;233398;1218;140008;-62
2022/03/29 05:00:07;;;;;;;38.00;22.40;;;;;;;11.29;49.71;98337.38;233202;1217;139686;-57
2022/03/29 05:05:11;;;;;;;36.10;22.30;;;;;;;11.31;49.60;98334.65;233278;1218;139260;-60
2022/03/29 05:10:14;;;;;;;35.00;21.80;;;;;;;11.32;49.73;98330.55;233160;1217;140133;-61
2022/03/29 05:15:19;;;;;;;36.20;21.30;;;;;;;11.27;50.13;98326.98;233221;1217;140493;-61
2022/03/29 05:20:22;;;;;;;51.70;33.70;;;;;;;11.12;50.14;98333.98;233100;1217;140955;-60
2022/03/29 05:25:26;;;;;;;37.50;22.10;;;;;;;11.00;50.33;98346.59;233272;1217;140191;-61
2022/03/29 05:30:29;;;;;;;40.50;22.40;;;;;;;11.01;50.57;98341.61;233065;1218;139905;-60
2022/03/29 05:35:33;;;;;;;38.10;22.60;;;;;;;11.05;50.97;98341.63;233081;1218;139736;-61
2022/03/29 05:40:37;;;;;;;37.50;21.80;;;;;;;11.11;51.16;98338.86;233106;1218;139664;-60
2022/03/29 05:45:40;;;;;;;34.60;21.70;;;;;;;11.18;51.17;98328.63;233201;1219;139508;-59
2022/03/29 05:50:43;;;;;;;36.20;22.10;;;;;;;11.23;51.26;98333.17;233158;1217;139436;-60
2022/03/29 05:55:48;;;;;;;38.80;22.10;;;;;;;11.30;51.51;98342.95;233236;1217;139357;-58
2022/03/29 06:00:51;;;;;;;33.80;22.20;;;;;;;11.31;51.32;98349.39;233356;1217;139780;-61
2022/03/29 06:05:54;;;;;;;39.70;22.70;;;;;;;11.36;51.53;98350.50;233334;1217;139540;-60
2022/03/29 06:10:58;;;;;;;36.00;22.10;;;;;;;11.47;51.49;98348.41;233268;1217;140056;-59
2022/03/29 06:16:02;;;;;;;38.40;20.80;;;;;;;11.58;51.83;98337.75;233120;1217;139924;-61
2022/03/29 06:21:06;;;;;;;159.90;95.80;;;;;;;11.68;51.72;98328.98;233227;1217;139640;-61
2022/03/29 06:26:09;;;;;;;37.00;24.30;;;;;;;11.83;51.95;98333.69;233228;1218;139436;-61
2022/03/29 06:31:12;;;;;;;38.80;22.00;;;;;;;11.97;51.60;98341.16;233278;1218;140729;-61
2022/03/29 06:36:15;;;;;;;80.00;51.80;;;;;;;12.04;51.49;98351.09;233117;1217;140126;-61
2022/03/29 06:41:19;;;;;;;44.20;22.90;;;;;;;12.12;52.01;98352.95;233131;1218;140290;-61
2022/03/29 06:46:22;;;;;;;35.30;21.60;;;;;;;12.16;52.32;98349.25;233005;1217;139360;-59
2022/03/29 06:51:26;;;;;;;75.00;51.50;;;;;;;12.14;52.59;98351.23;233101;1219;140629;-59
2022/03/29 06:56:30;;;;;;;35.20;23.40;;;;;;;12.09;52.69;98366.49;233129;1217;139365;-59
2022/03/29 07:01:34;;;;;;;37.40;24.40;;;;;;;12.01;53.08;98392.21;233193;1217;139672;-60
2022/03/29 07:06:38;;;;;;;40.20;25.20;;;;;;;11.95;53.30;98395.89;233447;1217;141231;-60
2022/03/29 07:11:41;;;;;;;38.20;25.10;;;;;;;11.94;53.29;98390.97;233032;1217;139755;-59
2022/03/29 07:16:45;;;;;;;35.90;25.10;;;;;;;11.90;53.37;98390.37;233152;1217;139351;-58
2022/03/29 07:21:49;;;;;;;38.20;24.10;;;;;;;11.83;53.60;98386.66;233094;1217;139916;-58
2022/03/29 07:26:53;;;;;;;37.30;23.90;;;;;;;11.81;54.16;98373.96;233192;1217;139824;-59
2022/03/29 07:31:56;;;;;;;33.50;22.70;;;;;;;11.81;54.07;98369.52;233220;1217;139309;-61
2022/03/29 07:37:00;;;;;;;33.30;23.90;;;;;;;11.81;54.16;98361.70;233263;1220;140083;-59
2022/03/29 07:42:04;;;;;;;34.50;23.40;;;;;;;11.86;54.73;98357.13;233157;1217;139574;-60
2022/03/29 07:47:06;;;;;;;37.30;24.10;;;;;;;11.92;54.60;98356.84;233067;1217;139415;-57
2022/03/29 07:52:10;;;;;;;38.70;23.50;;;;;;;12.00;54.63;98362.28;233136;1218;139885;-60
2022/03/29 07:57:12;;;;;;;40.00;28.20;;;;;;;12.15;54.72;98358.02;233128;1217;140399;-59
2022/03/29 08:02:37;;;;;;;38.50;25.50;;;;;;;12.37;54.88;98359.65;233139;1217;139620;-59
2022/03/29 08:07:41;;;;;;;42.00;29.80;;;;;;;12.53;55.11;98359.82;233074;1217;139665;-58
2022/03/29 08:12:44;;;;;;;40.90;27.50;;;;;;;12.66;54.38;98362.16;233184;1217;139677;-58
2022/03/29 08:17:48;;;;;;;41.10;27.80;;;;;;;12.70;54.57;98363.20;233139;1217;139602;-60
2022/03/29 08:22:55;;;;;;;43.00;28.20;;;;;;;12.74;54.14;98362.34;233126;1218;139602;-61
2022/03/29 08:28:00;;;;;;;40.60;26.00;;;;;;;12.77;53.79;98363.35;233168;1217;139430;-58
2022/03/29 08:33:04;;;;;;;42.30;25.30;;;;;;;12.76;53.98;98357.55;233044;1217;139449;-58
2022/03/29 08:38:07;;;;;;;37.10;24.60;;;;;;;12.79;54.07;98344.48;233145;1217;139722;-60
2022/03/29 08:43:30;;;;;;;38.80;24.50;;;;;;;12.80;53.93;98343.34;233267;1217;139300;-60
2022/03/29 08:48:34;;;;;;;37.80;24.20;;;;;;;12.82;53.54;98339.79;233161;1217;140568;-60
2022/03/29 08:53:37;;;;;;;37.10;25.30;;;;;;;12.93;53.47;98339.24;233131;1217;139160;-60
2022/03/29 08:58:40;;;;;;;44.20;27.50;;;;;;;13.02;53.62;98342.79;233099;1217;139472;-59
2022/03/29 09:03:43;;;;;;;34.10;23.70;;;;;;;13.10;53.16;98339.06;233061;1217;139654;-59
2022/03/29 09:08:47;;;;;;;44.30;25.70;;;;;;;13.13;53.23;98337.75;233173;1217;140207;-60
2022/03/29 09:14:03;;;;;;;40.20;25.10;;;;;;;13.20;53.51;98336.84;232998;1218;139913;-61
2022/03/29 09:19:09;;;;;;;42.60;23.80;;;;;;;13.26;52.93;98332.08;233165;1217;140126;-56
2022/03/29 09:24:16;;;;;;;40.00;23.10;;;;;;;13.31;53.23;98323.79;233049;1217;139479;-56
2022/03/29 09:29:22;;;;;;;143.00;93.90;;;;;;;13.36;53.17;98326.80;232968;1217;140406;-58
2022/03/29 09:34:30;;;;;;;41.30;25.00;;;;;;;13.44;52.97;98319.27;232990;1219;139485;-57
2022/03/29 09:39:41;;;;;;;39.60;23.10;;;;;;;13.56;53.13;98312.89;233029;1217;142298;-54
2022/03/29 09:44:50;;;;;;;41.70;23.40;;;;;;;13.69;53.09;98308.21;232990;1218;139529;-57
2022/03/29 09:50:08;;;;;;;39.20;24.30;;;;;;;13.81;53.08;98296.00;233045;1219;139671;-55
2022/03/29 09:55:20;;;;;;;38.10;23.70;;;;;;;13.91;52.61;98296.13;233157;1218;139976;-55
2022/03/29 10:00:43;;;;;;;44.80;25.80;;;;;;;13.97;52.78;98292.40;233038;1217;139357;-59
2022/03/29 10:05:49;;;;;;;40.40;23.10;;;;;;;14.09;52.26;98284.96;232947;1218;140088;-58
2022/03/29 10:10:52;;;;;;;121.30;81.60;;;;;;;14.14;51.83;98281.63;232886;1219;141566;-55
2022/03/29 10:15:56;;;;;;;44.90;26.30;;;;;;;14.20;51.27;98279.66;233054;1217;141804;-57
2022/03/29 10:21:01;;;;;;;39.80;24.20;;;;;;;14.30;51.39;98279.15;233030;1217;139622;-56
2022/03/29 10:26:07;;;;;;;38.70;23.60;;;;;;;14.37;51.23;98273.29;233052;1217;139656;-56
2022/03/29 10:31:30;;;;;;;36.70;23.20;;;;;;;14.38;50.98;98268.61;233348;1217;140921;-56
2022/03/29 10:36:33;;;;;;;33.60;21.70;;;;;;;14.49;50.85;98264.92;232958;1219;139138;-55
2022/03/29 10:41:45;;;;;;;35.50;23.40;;;;;;;14.57;50.63;98252.50;233150;1217;139742;-55
2022/03/29 10:46:51;;;;;;;36.70;21.70;;;;;;;14.76;50.28;98247.52;233032;1217;139794;-55
2022/03/29 10:52:04;;;;;;;31.80;20.10;;;;;;;14.77;49.91;98241.50;233115;1217;139257;-57
2022/03/29 10:57:28;;;;;;;27.70;19.40;;;;;;;14.77;49.29;98234.79;233105;1217;139954;-56
2022/03/29 11:02:32;;;;;;;29.60;17.70;;;;;;;14.73;49.00;98230.30;233197;1217;139868;-57
2022/03/29 11:07:53;;;;;;;28.50;16.60;;;;;;;14.81;48.78;98227.61;233365;1218;139693;-56
2022/03/29 11:12:58;;;;;;;33.00;17.70;;;;;;;14.80;48.60;98217.15;233332;1217;138964;-58
2022/03/29 11:18:23;;;;;;;29.10;17.60;;;;;;;14.90;48.42;98211.58;233195;1217;140107;-58
2022/03/29 11:23:38;;;;;;;25.20;16.50;;;;;;;14.94;48.28;98204.66;233215;1217;140507;-57
2022/03/29 11:28:56;;;;;;;30.40;18.10;;;;;;;14.88;48.13;98206.59;233135;1217;140117;-57
2022/03/29 11:33:59;;;;;;;21.90;15.60;;;;;;;14.91;48.05;98198.09;233060;1217;141100;-58
2022/03/29 11:39:26;;;;;;;28.20;16.70;;;;;;;14.93;47.82;98197.76;233146;1217;139853;-57
2022/03/29 11:44:29;;;;;;;24.00;16.50;;;;;;;15.00;47.78;98184.25;233245;1217;139974;-57
2022/03/29 11:49:39;;;;;;;25.20;15.80;;;;;;;15.03;47.57;98176.98;233338;1217;140070;-57
2022/03/29 11:54:53;;;;;;;27.70;17.80;;;;;;;15.13;47.59;98171.79;233210;1217;139808;-58
2022/03/29 11:59:58;;;;;;;26.40;19.00;;;;;;;15.25;47.53;98161.33;233181;1217;139653;-58
2022/03/29 12:05:02;;;;;;;30.40;18.50;;;;;;;15.30;47.44;98157.77;233034;1218;142110;-57
2022/03/29 12:10:06;;;;;;;30.60;18.50;;;;;;;15.38;47.31;98153.25;233175;1217;140069;-58
2022/03/29 12:15:09;;;;;;;30.20;19.00;;;;;;;15.42;47.11;98154.14;233117;1219;140738;-58
2022/03/29 12:20:12;;;;;;;36.40;19.40;;;;;;;15.38;46.97;98151.24;233133;1217;141144;-57
2022/03/29 12:25:15;;;;;;;32.30;18.90;;;;;;;15.39;46.98;98141.86;233253;1217;140453;-59
2022/03/29 12:30:20;;;;;;;27.70;19.60;;;;;;;15.39;46.96;98140.46;233102;1217;140779;-59
2022/03/29 12:35:27;;;;;;;27.40;18.80;;;;;;;15.35;46.97;98127.45;233060;1217;139539;-56
2022/03/29 12:40:31;;;;;;;25.60;17.40;;;;;;;15.42;47.19;98117.84;233091;1217;140411;-57
2022/03/29 12:45:35;;;;;;;28.60;17.80;;;;;;;15.48;47.09;98112.43;233167;1217;139908;-56
2022/03/29 12:50:39;;;;;;;30.10;18.80;;;;;;;15.58;46.94;98104.30;233205;1217;140223;-58
2022/03/29 12:55:55;;;;;;;24.70;17.00;;;;;;;15.66;46.88;98101.65;233268;1217;139872;-57
2022/03/29 13:01:00;;;;;;;26.50;16.90;;;;;;;15.69;46.57;98090.55;233124;1217;139703;-58
2022/03/29 13:06:20;;;;;;;28.50;18.50;;;;;;;15.65;46.44;98089.92;233244;1217;140045;-58
2022/03/29 13:12:16;;;;;;;33.40;19.40;;;;;;;15.69;46.41;98085.95;232618;1220;140559;-55
2022/03/29 13:17:20;;;;;;;27.20;18.90;;;;;;;15.71;46.47;98071.98;232765;1220;140095;-57
2022/03/29 13:22:23;;;;;;;24.90;18.20;;;;;;;15.82;46.40;98071.17;232750;1220;139976;-57
2022/03/29 13:27:26;;;;;;;28.70;19.40;;;;;;;15.89;45.96;98073.27;232771;1220;140175;-59
2022/03/29 13:32:29;;;;;;;25.40;17.70;;;;;;;15.84;46.05;98058.84;232809;1220;140644;-56
2022/03/29 13:37:39;;;;;;;29.00;19.00;;;;;;;15.82;45.95;98058.09;232954;1219;139463;-57
2022/03/29 13:42:43;;;;;;;31.60;21.50;;;;;;;15.87;45.93;98056.58;232830;1220;140344;-55
2022/03/29 13:47:46;;;;;;;30.60;20.90;;;;;;;15.82;45.64;98053.19;232820;1220;139954;-57
2022/03/29 13:52:49;;;;;;;30.60;20.00;;;;;;;15.86;45.62;98047.77;232793;1219;140120;-57
2022/03/29 13:57:52;;;;;;;27.90;20.00;;;;;;;15.90;45.55;98041.27;233115;1217;140205;-56
2022/03/29 14:02:56;;;;;;;29.80;19.10;;;;;;;15.85;45.35;98031.39;233069;1217;140084;-57
2022/03/29 14:07:59;;;;;;;25.50;17.70;;;;;;;15.82;45.02;98028.31;233295;1217;139829;-56
2022/03/29 14:13:06;;;;;;;26.50;18.00;;;;;;;15.77;44.79;98023.23;233139;1218;245711;-56
2022/03/29 14:18:10;;;;;;;25.30;17.50;;;;;;;15.73;44.57;98022.15;232862;1217;140611;-56
2022/03/29 14:23:13;;;;;;;25.70;17.20;;;;;;;15.66;44.29;98015.25;233035;1217;140492;-56
2022/03/29 14:28:17;;;;;;;22.60;17.50;;;;;;;15.66;44.46;98011.98;233083;1218;139964;-56
2022/03/29 14:33:20;;;;;;;26.60;17.60;;;;;;;15.66;44.39;98012.18;232896;1219;140052;-54
2022/03/29 14:38:26;;;;;;;26.20;17.70;;;;;;;15.65;44.51;98005.50;233071;1217;139002;-57
2022/03/29 14:43:50;;;;;;;27.30;17.40;;;;;;;15.66;44.38;97997.54;233189;1217;139365;-56
2022/03/29 14:48:53;;;;;;;25.90;17.00;;;;;;;15.65;44.31;97995.64;232843;1217;139810;-56
2022/03/29 14:53:57;;;;;;;26.80;16.40;;;;;;;15.61;44.19;97991.36;233182;1217;139271;-55
2022/03/29 14:59:00;;;;;;;22.60;16.60;;;;;;;15.59;44.15;97990.32;233380;1217;139874;-55
2022/03/29 15:04:03;;;;;;;29.50;18.80;;;;;;;15.52;44.16;97985.83;233160;1217;139767;-58
2022/03/29 15:09:06;;;;;;;24.70;16.80;;;;;;;15.53;43.88;97988.19;233108;1217;141399;-55
2022/03/29 15:14:09;;;;;;;24.60;16.70;;;;;;;15.49;43.76;97982.89;233131;1217;141266;-56
2022/03/29 15:19:13;;;;;;;32.30;16.30;;;;;;;15.43;43.61;97976.34;233299;1217;139385;-56
2022/03/29 15:24:17;;;;;;;24.70;17.00;;;;;;;15.40;43.55;97982.72;233094;1218;141251;-56
2022/03/29 15:29:20;;;;;;;26.40;16.10;;;;;;;15.36;43.44;97977.58;233132;1217;139610;-57
2022/03/29 15:34:36;;;;;;;27.30;17.90;;;;;;;15.27;43.37;97970.26;233140;1217;139397;-59
2022/03/29 15:39:41;;;;;;;24.20;15.80;;;;;;;15.18;43.28;97965.93;233196;1217;139253;-57
2022/03/29 15:45:05;;;;;;;26.10;17.80;;;;;;;15.12;43.41;97966.20;233233;1217;140336;-56
2022/03/29 15:50:08;;;;;;;28.10;17.90;;;;;;;15.02;43.39;97962.12;233167;1217;139612;-57
2022/03/29 15:55:11;;;;;;;29.30;17.70;;;;;;;14.98;43.44;97959.02;233381;1217;139807;-58
2022/03/29 16:00:15;;;;;;;33.60;18.70;;;;;;;14.94;43.55;97960.45;233640;1218;139321;-58
2022/03/29 16:05:18;;;;;;;32.80;18.10;;;;;;;14.92;43.63;97954.44;233694;1217;139859;-57
2022/03/29 16:10:21;;;;;;;32.80;19.60;;;;;;;14.90;43.60;97949.73;233672;1217;139490;-58
2022/03/29 16:15:24;;;;;;;25.40;17.50;;;;;;;14.92;43.50;97948.31;233490;1217;139486;-56
2022/03/29 16:20:29;;;;;;;31.10;18.50;;;;;;;14.87;43.56;97952.13;233048;1217;140396;-58
2022/03/29 16:25:32;;;;;;;80.00;50.80;;;;;;;14.81;43.51;97945.91;233798;1217;139257;-58
2022/03/29 16:30:37;;;;;;;32.60;17.70;;;;;;;14.86;43.68;97945.81;233239;1217;139667;-56
2022/03/29 16:35:43;;;;;;;28.90;16.50;;;;;;;14.81;43.29;97943.29;233112;1217;140043;-56
2022/03/29 16:40:46;;;;;;;28.90;17.20;;;;;;;14.76;43.00;97948.94;233127;1217;140073;-55
2022/03/29 16:45:49;;;;;;;26.50;16.50;;;;;;;14.71;43.11;97953.42;233120;1218;140637;-57
2022/03/29 16:50:52;;;;;;;29.80;16.60;;;;;;;14.61;43.08;97954.31;233179;1218;140286;-57
2022/03/29 16:55:58;;;;;;;28.60;17.50;;;;;;;14.55;42.91;97953.52;233248;1218;139099;-57
2022/03/29 17:01:01;;;;;;;27.60;18.20;;;;;;;14.51;43.02;97956.02;233367;1217;139234;-58
2022/03/29 17:06:05;;;;;;;35.00;19.40;;;;;;;14.44;42.90;97952.76;233263;1217;139742;-58
2022/03/29 17:11:08;;;;;;;36.70;19.10;;;;;;;14.36;43.01;97949.31;233183;1217;139514;-59
2022/03/29 17:16:11;;;;;;;32.40;18.40;;;;;;;14.31;42.88;97956.27;233094;1217;140358;-58
2022/03/29 17:21:14;;;;;;;31.30;18.80;;;;;;;14.24;42.95;97949.98;233196;1218;140799;-57
2022/03/29 17:26:19;;;;;;;26.20;16.20;;;;;;;14.24;42.87;97950.20;233124;1218;142209;-58
2022/03/29 17:31:26;;;;;;;23.60;16.30;;;;;;;14.17;42.68;97944.41;233260;1217;139307;-57
2022/03/29 17:36:30;;;;;;;28.80;16.50;;;;;;;14.07;42.69;97947.53;233021;1219;140536;-56
2022/03/29 17:41:33;;;;;;;28.10;16.60;;;;;;;14.03;42.56;97948.27;233230;1218;140306;-59
2022/03/29 17:46:36;;;;;;;30.60;17.30;;;;;;;13.99;42.58;97947.33;233064;1219;140551;-56
2022/03/29 17:51:39;;;;;;;29.40;17.60;;;;;;;13.97;42.90;97955.36;233184;1218;140087;-58
2022/03/29 17:56:43;;;;;;;39.00;24.40;;;;;;;13.95;42.86;97963.39;233123;1218;139733;-58
2022/03/29 18:01:46;;;;;;;33.90;18.50;;;;;;;13.92;43.45;97966.73;233321;1218;139549;-57
2022/03/29 18:06:49;;;;;;;33.80;19.60;;;;;;;13.84;43.39;97967.77;233007;1218;140123;-56
2022/03/29 18:11:56;;;;;;;30.40;19.10;;;;;;;13.76;43.84;97958.56;233146;1218;139603;-58
2022/03/29 18:17:00;;;;;;;41.30;20.20;;;;;;;13.72;43.62;97968.55;233608;1209;140376;-56
2022/03/29 18:22:06;;;;;;;33.70;19.00;;;;;;;13.64;43.85;97969.29;232918;1218;139339;-59
2022/03/29 18:27:10;;;;;;;33.60;19.50;;;;;;;13.57;44.06;97977.27;232951;1219;139305;-57
2022/03/29 18:32:15;;;;;;;34.40;19.10;;;;;;;13.49;44.38;97975.66;233013;1219;139999;-56
2022/03/29 18:37:19;;;;;;;31.70;19.00;;;;;;;13.40;44.73;97975.23;233037;1219;139557;-56
2022/03/29 18:42:22;;;;;;;36.20;21.10;;;;;;;13.28;45.04;97980.08;232882;1219;140289;-57
2022/03/29 18:47:26;;;;;;;35.30;21.20;;;;;;;13.20;44.96;97987.33;232869;1219;139884;-55
2022/03/29 18:52:30;;;;;;;227.50;173.40;;;;;;;13.16;45.80;97998.23;232937;1219;139476;-56
2022/03/29 18:57:33;;;;;;;36.80;24.20;;;;;;;13.16;45.88;98019.43;232852;1219;141391;-57
2022/03/29 19:02:37;;;;;;;25.80;17.00;;;;;;;13.10;46.45;98031.54;233003;1219;139970;-57
2022/03/29 19:07:42;;;;;;;28.00;16.80;;;;;;;12.97;46.38;98011.11;232942;1219;139530;-57
2022/03/29 19:12:47;;;;;;;27.40;17.20;;;;;;;12.86;46.85;98006.26;232986;1219;139033;-55
2022/03/29 19:17:50;;;;;;;29.70;18.60;;;;;;;12.71;46.93;98001.29;232884;1219;140457;-58
2022/03/29 19:22:54;;;;;;;28.20;18.70;;;;;;;12.55;47.41;98005.94;232746;1219;140716;-56
2022/03/29 19:27:58;;;;;;;30.00;19.20;;;;;;;12.43;48.20;98020.08;232731;1220;141412;-55
2022/03/29 19:33:05;;;;;;;105.10;78.00;;;;;;;12.34;48.15;98025.16;233003;1219;139834;-58
2022/03/29 19:38:08;;;;;;;33.30;21.90;;;;;;;12.35;48.63;98027.02;232875;1219;139362;-58
2022/03/29 19:43:46;;;;;;;33.30;21.90;;;;;;;12.25;48.80;98025.58;233047;1219;139499;-58
2022/03/29 19:48:50;;;;;;;31.80;21.70;;;;;;;12.12;49.14;98029.13;232778;1219;139468;-57
2022/03/29 19:53:57;;;;;;;30.40;21.20;;;;;;;12.01;49.27;98029.86;232881;1220;139488;-57
2022/03/29 19:59:00;;;;;;;30.50;22.90;;;;;;;11.90;49.77;98037.73;232937;1219;140014;-58
2022/03/29 20:04:03;;;;;;;34.30;23.20;;;;;;;11.80;50.18;98040.69;232986;1219;139372;-59
2022/03/29 20:09:29;;;;;;;35.80;22.50;;;;;;;11.68;50.77;98044.48;232848;1220;141975;-58
2022/03/29 20:14:32;;;;;;;;;;;;;;;11.57;51.01;98039.59;232987;1219;139611;-58
2022/03/29 20:19:35;;;;;;;35.80;21.80;;;;;;;11.43;51.37;98033.59;233060;1219;125857;-57
2022/03/29 20:24:38;;;;;;;32.90;22.90;;;;;;;11.32;51.92;98034.64;233033;1219;139465;-58
2022/03/29 20:29:43;;;;;;;36.70;24.50;;;;;;;11.24;52.32;98040.98;233022;1219;139472;-58
2022/03/29 20:34:46;;;;;;;36.10;24.30;;;;;;;11.16;52.46;98045.20;232871;1219;139646;-58
2022/03/29 20:39:50;;;;;;;41.10;26.60;;;;;;;11.10;52.84;98050.80;232552;1219;140537;-55
2022/03/29 20:44:53;;;;;;;38.00;24.60;;;;;;;11.02;53.06;98059.48;232948;1219;139449;-57
2022/03/29 20:49:56;;;;;;;32.20;22.00;;;;;;;10.95;53.23;98066.75;232992;1219;139742;-58
2022/03/29 20:54:59;;;;;;;32.20;21.30;;;;;;;10.88;53.15;98065.58;232934;1219;139631;-58
2022/03/29 21:00:03;;;;;;;30.80;20.20;;;;;;;10.79;53.48;98070.52;233195;1219;140849;-59
2022/03/29 21:05:06;;;;;;;30.70;20.50;;;;;;;10.70;53.14;98076.52;232742;1219;139101;-58
2022/03/29 21:10:09;;;;;;;31.00;20.60;;;;;;;10.63;53.60;98077.39;232390;1219;139556;-58
2022/03/29 21:15:12;;;;;;;34.40;22.00;;;;;;;10.57;53.76;98081.33;232355;1219;139130;-61
2022/03/29 21:20:15;;;;;;;31.30;21.50;;;;;;;10.48;53.77;98092.95;233037;1219;139939;-57
2022/03/29 21:25:18;;;;;;;32.90;22.30;;;;;;;10.42;54.29;98094.30;233205;1219;139867;-58
2022/03/29 21:30:24;;;;;;;34.20;22.30;;;;;;;10.34;54.35;98091.57;233045;1219;140936;-58
2022/03/29 21:35:27;;;;;;;35.00;23.60;;;;;;;10.25;54.85;98102.54;232779;1218;139606;-58
2022/03/29 21:40:30;;;;;;;36.70;24.50;;;;;;;10.18;55.05;98102.64;232658;1219;139629;-59
2022/03/29 21:45:33;;;;;;;36.40;25.30;;;;;;;10.18;55.14;98109.25;232961;1219;139316;-58
2022/03/29 21:50:37;;;;;;;39.00;25.30;;;;;;;10.17;55.33;98105.73;232943;1218;140086;-58
2022/03/29 21:55:59;;;;;;;38.00;26.40;;;;;;;10.18;55.46;98113.44;233066;1219;139646;-60
2022/03/29 22:01:20;;;;;;;37.10;25.60;;;;;;;10.21;55.47;98111.30;233151;1219;140855;-59
2022/03/29 22:06:42;;;;;;;40.90;27.10;;;;;;;10.19;55.52;98115.89;233051;1219;140456;-60
2022/03/29 22:11:45;;;;;;;40.10;27.00;;;;;;;10.16;55.50;98113.77;233005;1219;140466;-59
2022/03/29 22:16:48;;;;;;;39.00;25.20;;;;;;;10.16;55.28;98108.63;233104;1219;139362;-60
2022/03/29 22:21:51;;;;;;;37.60;25.30;;;;;;;10.13;55.29;98111.03;232855;1219;141096;-59
2022/03/29 22:26:55;;;;;;;40.50;24.00;;;;;;;10.08;55.18;98112.13;233085;1219;139496;-59
2022/03/29 22:31:58;;;;;;;40.40;25.30;;;;;;;10.03;55.11;98109.62;233070;1219;141193;-59
2022/03/29 22:37:01;;;;;;;38.20;25.30;;;;;;;9.94;54.71;98107.27;232782;1219;139188;-59
2022/03/29 22:42:07;;;;;;;37.90;25.70;;;;;;;9.93;54.92;98100.30;232960;1219;139419;-59
2022/03/29 22:47:11;;;;;;;41.70;26.30;;;;;;;9.89;54.72;98100.20;233100;1218;141114;-58
2022/03/29 22:52:14;;;;;;;39.30;26.00;;;;;;;9.87;54.94;98096.31;233067;1219;139437;-58